Time;durP1;ratioP1;P1;durP2;ratioP2;P2;SDS_P1;SDS_P2;PMS_P1;PMS_P2;Temp;Humidity;BMP_temperature;BMP_pressure;BME280_temperature;BME280_humidity;BME280_pressure;Samples;Min_cycle;Max_cycle;Signal;HPM_P1;HPM_P2
2021/04/07 00:01:02;;;;;;;9.73;1.08;;;1.50;99.90;;;;;;5112523;28;20055;-84
2021/04/07 00:03:30;;;;;;;5.80;1.23;;;1.50;99.90;;;;;;5110415;28;20047;-85
2021/04/07 00:05:56;;;;;;;8.63;0.95;;;1.50;99.90;;;;;;5110396;28;20051;-85
2021/04/07 00:08:25;;;;;;;4.53;0.60;;;1.50;99.90;;;;;;5101700;27;20071;-85
2021/04/07 00:10:53;;;;;;;6.03;0.85;;;1.50;99.90;;;;;;5110437;27;20557;-85
2021/04/07 00:13:20;;;;;;;15.25;1.88;;;1.50;99.90;;;;;;5109384;27;20119;-85
2021/04/07 00:15:46;;;;;;;7.07;0.70;;;1.60;99.90;;;;;;5108785;28;20111;-86
2021/04/07 00:18:13;;;;;;;3.33;0.95;;;1.70;99.90;;;;;;5106809;28;20134;-85
2021/04/07 00:20:39;;;;;;;7.07;0.82;;;1.80;99.90;;;;;;5108707;28;20111;-86
2021/04/07 00:23:06;;;;;;;10.77;1.30;;;1.80;99.90;;;;;;5107396;27;20142;-86
2021/04/07 00:25:33;;;;;;;4.20;0.82;;;1.90;99.90;;;;;;5101546;28;20168;-85
2021/04/07 00:28:02;;;;;;;7.80;1.52;;;2.00;99.90;;;;;;5108603;27;20094;-85
2021/04/07 00:30:31;;;;;;;8.75;1.08;;;2.00;99.90;;;;;;5107739;28;20046;-84
2021/04/07 00:32:58;;;;;;;6.28;0.80;;;2.00;99.90;;;;;;5123438;27;20146;-83
2021/04/07 00:35:25;;;;;;;4.00;0.88;;;1.90;99.90;;;;;;5108086;27;20046;-84
2021/04/07 00:37:51;;;;;;;6.70;0.70;;;1.80;99.90;;;;;;5109098;27;20139;-84
2021/04/07 00:40:18;;;;;;;2.60;0.50;;;1.70;99.90;;;;;;5107104;27;20057;-84
2021/04/07 00:42:47;;;;;;;3.55;0.80;;;1.60;99.90;;;;;;5085130;28;20135;-84
2021/04/07 00:45:14;;;;;;;2.75;0.28;;;1.60;99.90;;;;;;5098803;27;20491;-84
2021/04/07 00:47:41;;;;;;;3.65;0.70;;;1.50;99.90;;;;;;5104195;28;20056;-84
2021/04/07 00:50:09;;;;;;;6.40;0.82;;;1.50;99.90;;;;;;5089624;28;20048;-84
2021/04/07 00:52:35;;;;;;;7.63;1.25;;;1.40;99.90;;;;;;5100043;27;20558;-85
2021/04/07 00:55:04;;;;;;;9.13;0.90;;;1.40;99.90;;;;;;5106875;27;20080;-84
2021/04/07 00:57:30;;;;;;;7.40;0.88;;;1.30;99.90;;;;;;5110502;27;20248;-84
2021/04/07 00:59:57;;;;;;;5.38;0.90;;;1.30;99.90;;;;;;5107120;28;20093;-85
2021/04/07 01:02:23;;;;;;;5.47;1.02;;;1.30;99.90;;;;;;5108382;27;20107;-85
2021/04/07 01:04:51;;;;;;;9.25;0.63;;;1.30;99.90;;;;;;5108427;27;20055;-85
2021/04/07 01:07:18;;;;;;;8.57;0.55;;;1.30;99.90;;;;;;5100715;28;20052;-85
2021/04/07 01:09:44;;;;;;;3.78;0.80;;;1.30;99.90;;;;;;5119980;27;20122;-85
2021/04/07 01:12:11;;;;;;;8.57;0.80;;;1.40;99.90;;;;;;5105344;28;20047;-84
2021/04/07 01:14:38;;;;;;;2.05;0.60;;;1.40;99.90;;;;;;5097390;28;20422;-84
2021/04/07 01:17:06;;;;;;;7.20;1.05;;;1.40;99.90;;;;;;5105194;28;20088;-84
2021/04/07 01:19:33;;;;;;;5.35;0.75;;;1.40;99.90;;;;;;5115263;28;20064;-84
2021/04/07 01:21:59;;;;;;;10.45;0.73;;;1.40;99.90;;;;;;5115890;28;20097;-84
2021/04/07 01:24:26;;;;;;;11.00;1.38;;;1.50;99.90;;;;;;5109212;28;20074;-84
2021/04/07 01:26:53;;;;;;;5.38;1.10;;;1.50;99.90;;;;;;5103475;28;20046;-85
2021/04/07 01:29:19;;;;;;;6.22;0.70;;;1.40;99.90;;;;;;5105539;27;20051;-84
2021/04/07 01:31:56;;;;;;;5.20;0.43;;;1.40;99.90;;;;;;5105900;28;20569;-85
2021/04/07 01:34:22;;;;;;;7.70;0.70;;;1.40;99.90;;;;;;5105867;27;20059;-85
2021/04/07 01:36:50;;;;;;;4.30;0.60;;;1.40;99.90;;;;;;5106523;28;20523;-84
2021/04/07 01:39:17;;;;;;;5.72;0.88;;;1.50;99.90;;;;;;5104634;28;20062;-85
2021/04/07 01:41:44;;;;;;;7.22;0.85;;;1.50;99.90;;;;;;5119951;27;20147;-84
2021/04/07 01:44:13;;;;;;;5.80;1.00;;;1.50;99.90;;;;;;5116438;27;20048;-84
2021/04/07 01:46:39;;;;;;;2.88;0.38;;;1.60;99.90;;;;;;5106975;28;20140;-84
2021/04/07 01:49:08;;;;;;;7.88;1.55;;;1.60;99.90;;;;;;5107282;28;20088;-85
2021/04/07 01:51:35;;;;;;;6.13;0.75;;;1.70;99.90;;;;;;5106882;28;20066;-85
2021/04/07 01:54:07;;;;;;;7.13;1.00;;;1.70;99.90;;;;;;5112921;27;20142;-85
2021/04/07 01:56:46;;;;;;;6.63;1.38;;;1.80;99.90;;;;;;5105458;28;20444;-84
2021/04/07 01:59:14;;;;;;;7.22;0.85;;;1.80;99.90;;;;;;5104664;28;20562;-85
2021/04/07 02:01:40;;;;;;;4.95;0.73;;;1.80;99.90;;;;;;5108295;28;20047;-85
2021/04/07 02:04:06;;;;;;;8.55;1.20;;;1.90;99.90;;;;;;5106206;28;20520;-85
2021/04/07 02:06:32;;;;;;;2.20;0.35;;;1.90;99.90;;;;;;5104957;28;20150;-85
2021/04/07 02:08:59;;;;;;;3.38;0.47;;;1.90;99.90;;;;;;5106414;28;20067;-85
2021/04/07 02:11:25;;;;;;;6.47;1.05;;;1.90;99.90;;;;;;5109900;28;20044;-85
2021/04/07 02:13:52;;;;;;;4.45;0.43;;;1.90;99.90;;;;;;5108064;28;20055;-84
2021/04/07 02:16:19;;;;;;;3.70;0.30;;;2.00;99.90;;;;;;5107435;28;20123;-84
2021/04/07 02:18:46;;;;;;;3.13;0.60;;;2.00;99.90;;;;;;5106926;28;20059;-84
2021/04/07 02:21:12;;;;;;;4.03;0.73;;;2.00;99.90;;;;;;5100498;28;20055;-85
2021/04/07 02:23:39;;;;;;;3.25;0.63;;;2.00;99.90;;;;;;5107075;28;20063;-84
2021/04/07 02:26:06;;;;;;;3.30;1.13;;;2.00;99.90;;;;;;5105853;28;20071;-84
2021/04/07 02:28:34;;;;;;;2.90;0.40;;;2.00;99.90;;;;;;5100957;28;20052;-82
2021/04/07 02:31:02;;;;;;;6.07;0.60;;;1.90;99.90;;;;;;5106188;28;20516;-81
2021/04/07 02:33:29;;;;;;;9.70;1.20;;;1.90;99.90;;;;;;5108991;28;20051;-81
2021/04/07 02:35:55;;;;;;;6.93;0.80;;;1.80;99.90;;;;;;5106703;28;25804;-80
2021/04/07 02:38:21;;;;;;;4.35;0.57;;;1.70;99.90;;;;;;5109417;28;20074;-81
2021/04/07 02:40:48;;;;;;;7.13;0.47;;;1.60;99.90;;;;;;5107572;28;20127;-80
2021/04/07 02:43:14;;;;;;;8.68;0.88;;;1.60;99.90;;;;;;5103895;28;20075;-82
2021/04/07 02:45:40;;;;;;;9.00;0.90;;;1.50;99.90;;;;;;5096647;28;20533;-82
2021/04/07 02:48:07;;;;;;;8.57;0.85;;;1.50;99.90;;;;;;5097197;28;20054;-81
2021/04/07 02:50:33;;;;;;;5.40;0.82;;;1.50;99.90;;;;;;5109624;28;20075;-82
2021/04/07 02:52:59;;;;;;;2.90;1.30;;;1.60;99.90;;;;;;5124523;27;20457;-82
2021/04/07 02:55:26;;;;;;;4.68;0.60;;;1.60;99.90;;;;;;5105923;28;20397;-83
2021/04/07 02:57:52;;;;;;;2.45;0.40;;;1.60;99.90;;;;;;5107630;28;20096;-83
2021/04/07 03:00:19;;;;;;;3.95;0.88;;;1.70;99.90;;;;;;5108635;27;20524;-83
2021/04/07 03:02:45;;;;;;;7.65;1.30;;;1.70;99.90;;;;;;5109232;28;20135;-82
2021/04/07 03:05:13;;;;;;;8.82;1.42;;;1.70;99.90;;;;;;5109612;28;20051;-82
2021/04/07 03:07:41;;;;;;;2.53;0.57;;;1.70;99.90;;;;;;5103532;27;20066;-82
2021/04/07 03:10:10;;;;;;;6.90;1.00;;;1.70;99.90;;;;;;5104973;28;20044;-82
2021/04/07 03:12:37;;;;;;;2.80;0.40;;;1.70;99.90;;;;;;5109895;27;20100;-82
2021/04/07 03:15:06;;;;;;;7.13;0.93;;;1.60;99.90;;;;;;5090194;28;20054;-82
2021/04/07 03:17:32;;;;;;;6.35;1.15;;;1.60;99.90;;;;;;5091068;28;20447;-83
2021/04/07 03:19:58;;;;;;;11.55;1.92;;;1.50;99.90;;;;;;5091336;28;20035;-82
2021/04/07 03:22:25;;;;;;;5.78;0.90;;;1.40;99.90;;;;;;5079013;28;20044;-82
2021/04/07 03:24:51;;;;;;;12.02;1.55;;;1.30;99.90;;;;;;5082532;28;20500;-82
2021/04/07 03:27:17;;;;;;;7.60;1.20;;;1.30;99.90;;;;;;5090430;28;20047;-82
2021/04/07 03:29:43;;;;;;;7.22;1.08;;;1.30;99.90;;;;;;5109523;28;20111;-82
2021/04/07 03:32:10;;;;;;;8.65;1.00;;;1.30;99.90;;;;;;5091657;28;20138;-82
2021/04/07 03:34:36;;;;;;;5.70;0.85;;;1.30;99.90;;;;;;5091339;28;20126;-82
2021/04/07 03:37:02;;;;;;;4.25;0.55;;;1.40;99.90;;;;;;5091746;28;20103;-83
2021/04/07 03:39:28;;;;;;;3.00;0.30;;;1.40;99.90;;;;;;5091262;28;20082;-83
2021/04/07 03:41:55;;;;;;;1.25;0.25;;;1.40;99.90;;;;;;5092200;28;20070;-83
2021/04/07 03:44:22;;;;;;;4.22;0.40;;;1.50;99.90;;;;;;5091453;28;20061;-84
2021/04/07 03:46:52;;;;;;;3.83;0.35;;;1.60;99.90;;;;;;5107081;28;20047;-84
2021/04/07 03:49:19;;;;;;;2.80;0.35;;;1.70;99.90;;;;;;5107618;28;20060;-84
2021/04/07 03:51:46;;;;;;;7.05;0.82;;;1.70;99.90;;;;;;5107561;28;20067;-84
2021/04/07 03:54:12;;;;;;;2.15;0.38;;;1.80;99.90;;;;;;5109370;28;20135;-84
2021/04/07 03:56:38;;;;;;;1.60;0.52;;;1.80;99.90;;;;;;5110561;28;20043;-83
2021/04/07 03:59:06;;;;;;;3.85;0.52;;;1.90;99.90;;;;;;5106385;28;20127;-83
2021/04/07 04:01:32;;;;;;;3.38;0.30;;;1.90;99.90;;;;;;5087350;27;20039;-84
2021/04/07 04:03:58;;;;;;;3.22;0.75;;;1.90;99.90;;;;;;5108312;27;20086;-84
2021/04/07 04:06:25;;;;;;;6.70;0.57;;;1.90;99.90;;;;;;5109105;28;20052;-83
2021/04/07 04:08:52;;;;;;;2.05;0.25;;;1.90;99.90;;;;;;5106710;28;20544;-84
2021/04/07 04:11:18;;;;;;;3.40;0.63;;;2.00;99.90;;;;;;5103335;28;20078;-84
2021/04/07 04:13:44;;;;;;;4.25;0.30;;;2.00;99.90;;;;;;5109895;27;20534;-84
2021/04/07 04:16:11;;;;;;;6.47;0.40;;;1.90;99.90;;;;;;5099514;28;20104;-84
2021/04/07 04:18:39;;;;;;;3.15;0.45;;;1.90;99.90;;;;;;5106170;27;20048;-84
2021/04/07 04:21:06;;;;;;;3.30;0.50;;;1.90;99.90;;;;;;5104515;28;20054;-84
2021/04/07 04:23:33;;;;;;;1.70;0.45;;;1.90;99.90;;;;;;5109023;27;20143;-83
2021/04/07 04:26:00;;;;;;;0.52;0.32;;;1.90;99.90;;;;;;5107938;27;20043;-83
2021/04/07 04:28:26;;;;;;;1.15;0.38;;;1.80;99.90;;;;;;5118479;27;20054;-83
2021/04/07 04:30:53;;;;;;;2.22;0.75;;;1.80;99.90;;;;;;5108229;28;20055;-83
2021/04/07 04:33:19;;;;;;;1.20;0.75;;;1.80;99.90;;;;;;5105559;27;20067;-84
2021/04/07 04:35:45;;;;;;;5.85;1.10;;;1.80;99.90;;;;;;5108190;28;20043;-84
2021/04/07 04:38:12;;;;;;;3.67;1.30;;;1.80;99.90;;;;;;5105567;28;20512;-84
2021/04/07 04:40:39;;;;;;;11.38;2.22;;;1.80;99.90;;;;;;5107476;28;20058;-84
2021/04/07 04:43:05;;;;;;;11.60;2.25;;;1.80;99.90;;;;;;5105965;27;20031;-84
2021/04/07 04:45:33;;;;;;;5.78;1.90;;;1.90;99.90;;;;;;5101727;28;20100;-83
2021/04/07 04:47:59;;;;;;;7.65;2.17;;;1.90;99.90;;;;;;5081644;28;20048;-84
2021/04/07 04:50:26;;;;;;;13.35;2.75;;;1.90;99.90;;;;;;5107812;28;20490;-83
2021/04/07 04:52:52;;;;;;;5.15;2.30;;;2.00;99.90;;;;;;5105735;28;20142;-84
2021/04/07 04:55:19;;;;;;;10.40;2.10;;;2.00;99.90;;;;;;5108678;27;20107;-84
2021/04/07 04:57:45;;;;;;;5.53;2.30;;;2.00;99.90;;;;;;5107229;28;20054;-84
2021/04/07 05:00:12;;;;;;;4.43;2.15;;;2.00;99.90;;;;;;5109073;28;20135;-84
2021/04/07 05:02:44;;;;;;;8.80;2.95;;;2.10;99.90;;;;;;5101381;28;20048;-84
2021/04/07 05:05:11;;;;;;;8.48;2.15;;;2.10;99.90;;;;;;5105754;27;20074;-84
2021/04/07 05:07:37;;;;;;;8.00;1.88;;;2.10;99.90;;;;;;5107590;28;20077;-85
2021/04/07 05:10:05;;;;;;;9.40;2.33;;;2.20;99.90;;;;;;5107003;28;20043;-85
2021/04/07 05:12:31;;;;;;;5.30;1.48;;;2.30;99.90;;;;;;5104590;28;20048;-84
2021/04/07 05:14:58;;;;;;;14.00;2.60;;;2.30;99.90;;;;;;5108766;27;20050;-85
2021/04/07 05:17:24;;;;;;;17.17;1.90;;;2.40;99.90;;;;;;5102894;28;20130;-83
2021/04/07 05:19:51;;;;;;;11.93;1.95;;;2.40;99.90;;;;;;5106156;27;20411;-84
2021/04/07 05:22:17;;;;;;;7.40;2.00;;;2.50;99.90;;;;;;5104161;27;20052;-84
2021/04/07 05:24:44;;;;;;;9.43;1.25;;;2.50;99.90;;;;;;5105282;28;20144;-84
2021/04/07 05:27:10;;;;;;;14.85;1.52;;;2.60;99.90;;;;;;5107840;28;20067;-84
2021/04/07 05:29:37;;;;;;;12.05;1.25;;;2.60;99.90;;;;;;5087667;27;20032;-84
2021/04/07 05:32:03;;;;;;;10.43;1.83;;;2.70;99.90;;;;;;5107430;28;20517;-84
2021/04/07 05:34:32;;;;;;;11.90;1.70;;;2.70;99.90;;;;;;5091216;28;20559;-84
2021/04/07 05:36:58;;;;;;;12.98;2.40;;;2.70;99.90;;;;;;5088750;28;20056;-82
2021/04/07 05:39:30;;;;;;;17.45;2.40;;;2.80;99.90;;;;;;5058695;28;20131;-82
2021/04/07 05:41:58;;;;;;;;;;;2.90;99.90;;;;;;5048646;28;20131;-82
2021/04/07 05:44:24;;;;;;;10.88;2.35;;;3.00;99.90;;;;;;5077843;28;19969;-82
2021/04/07 05:46:51;;;;;;;15.20;2.92;;;3.10;99.90;;;;;;5091015;28;20512;-83
2021/04/07 05:49:17;;;;;;;6.75;1.42;;;3.20;99.90;;;;;;5090796;28;20051;-83
2021/04/07 05:51:43;;;;;;;22.88;2.40;;;3.30;99.90;;;;;;5078881;28;20115;-85
2021/04/07 05:54:11;;;;;;;15.82;2.13;;;3.40;99.90;;;;;;5089420;27;20063;-82
2021/04/07 05:56:37;;;;;;;26.85;2.30;;;3.50;99.90;;;;;;5084978;28;20079;-83
2021/04/07 05:59:04;;;;;;;13.57;1.85;;;3.70;99.90;;;;;;5107320;28;20083;-85
2021/04/07 06:01:30;;;;;;;23.70;3.65;;;3.90;99.90;;;;;;5080589;28;20074;-86
2021/04/07 06:03:57;;;;;;;14.00;1.70;;;4.00;99.90;;;;;;5092681;28;20100;-86
2021/04/07 06:06:23;;;;;;;19.02;2.80;;;4.10;99.90;;;;;;5092004;28;20051;-84
2021/04/07 06:08:49;;;;;;;12.15;1.75;;;4.20;99.90;;;;;;5092545;28;20058;-85
2021/04/07 06:11:18;;;;;;;11.02;1.23;;;4.30;99.90;;;;;;5088524;28;20047;-84
2021/04/07 06:13:46;;;;;;;18.65;2.20;;;4.30;99.90;;;;;;5079243;28;20151;-82
2021/04/07 06:16:14;;;;;;;19.23;1.90;;;4.30;99.90;;;;;;5088610;28;20039;-83
2021/04/07 06:18:43;;;;;;;8.27;1.40;;;4.40;99.90;;;;;;5099424;28;20075;-86
2021/04/07 06:21:14;;;;;;;18.80;2.15;;;4.50;99.90;;;;;;5091083;28;20060;-86
2021/04/07 06:23:40;;;;;;;18.00;2.90;;;4.70;99.90;;;;;;5071869;28;20052;-83
2021/04/07 06:26:07;;;;;;;17.98;2.08;;;5.00;99.90;;;;;;5055767;28;20080;-84
2021/04/07 06:28:33;;;;;;;10.32;2.08;;;5.30;99.90;;;;;;5074457;28;20106;-85
2021/04/07 06:31:00;;;;;;;12.30;1.88;;;5.70;99.90;;;;;;5078332;28;20055;-84
2021/04/07 06:33:34;;;;;;;22.50;2.55;;;6.10;99.90;;;;;;5109263;28;20047;-84
2021/04/07 06:36:06;;;;;;;9.30;1.73;;;6.30;99.90;;;;;;5079734;28;20146;-84
2021/04/07 06:38:35;;;;;;;13.15;1.90;;;6.40;99.90;;;;;;5077021;28;20049;-84
2021/04/07 06:41:02;;;;;;;12.52;1.90;;;6.30;99.90;;;;;;5087069;28;20066;-83
2021/04/07 06:43:33;;;;;;;16.00;2.42;;;6.20;99.90;;;;;;5102677;28;20120;-83
2021/04/07 06:46:00;;;;;;;13.57;1.73;;;6.10;99.90;;;;;;5100203;28;20100;-85
2021/04/07 06:48:28;;;;;;;13.30;1.50;;;6.10;99.90;;;;;;5109282;28;20067;-85
2021/04/07 06:50:55;;;;;;;14.68;1.67;;;6.10;99.90;;;;;;5092029;28;20055;-85
2021/04/07 06:53:26;;;;;;;16.88;1.98;;;6.10;99.90;;;;;;5062573;28;20130;-86
2021/04/07 06:55:53;;;;;;;15.32;1.77;;;6.00;99.90;;;;;;5107864;28;20142;-87
2021/04/07 06:58:20;;;;;;;12.15;2.70;;;5.90;99.90;;;;;;5091676;28;20506;-85
2021/04/07 07:00:46;;;;;;;9.45;2.03;;;5.80;99.90;;;;;;5110688;28;20071;-83
2021/04/07 07:03:14;;;;;;;16.42;1.52;;;5.70;99.90;;;;;;5110880;27;20060;-84
2021/04/07 07:05:43;;;;;;;15.93;1.92;;;5.70;99.90;;;;;;5111405;28;20051;-84
2021/04/07 07:08:13;;;;;;;5.50;1.02;;;5.60;99.90;;;;;;5108178;27;20106;-83
2021/04/07 07:10:42;;;;;;;13.23;1.20;;;5.50;99.90;;;;;;5103460;27;20047;-81
2021/04/07 07:13:11;;;;;;;11.85;1.30;;;5.40;99.90;;;;;;5108926;27;20074;-84
2021/04/07 07:15:38;;;;;;;11.00;1.63;;;5.30;99.90;;;;;;5105839;27;20082;-83
2021/04/07 07:18:06;;;;;;;13.07;1.92;;;5.20;99.90;;;;;;5104177;28;20129;-83
2021/04/07 07:20:35;;;;;;;16.67;1.95;;;5.20;99.90;;;;;;5106893;28;20038;-84
2021/04/07 07:23:05;;;;;;;15.38;1.73;;;5.30;99.90;;;;;;5081083;27;20100;-84
2021/04/07 07:25:32;;;;;;;17.98;2.75;;;5.50;99.90;;;;;;5107939;27;20060;-83
2021/04/07 07:28:05;;;;;;;21.25;2.58;;;5.60;99.90;;;;;;5101846;28;20047;-83
2021/04/07 07:30:41;;;;;;;18.02;2.70;;;5.60;99.90;;;;;;5104311;27;20145;-83
2021/04/07 07:33:40;;;;;;;21.75;2.45;;;5.60;99.90;;;;;;5106595;28;20491;-83
2021/04/07 07:36:08;;;;;;;21.08;3.63;;;5.60;99.90;;;;;;5094665;28;20135;-84
2021/04/07 07:38:35;;;;;;;12.68;1.67;;;5.50;99.90;;;;;;5108883;28;20081;-83
2021/04/07 07:41:05;;;;;;;15.32;2.65;;;5.50;99.90;;;;;;5106137;27;20040;-83
2021/04/07 07:43:34;;;;;;;15.57;2.20;;;5.50;99.90;;;;;;5105117;28;20079;-83
2021/04/07 07:46:15;;;;;;;14.55;2.20;;;5.50;99.90;;;;;;5100868;28;20055;-83
2021/04/07 07:48:43;;;;;;;16.73;3.10;;;5.50;99.90;;;;;;5101784;28;20047;-83
2021/04/07 07:51:21;;;;;;;26.23;3.65;;;5.50;99.90;;;;;;5123266;27;20134;-83
2021/04/07 07:53:49;;;;;;;13.02;1.85;;;5.50;99.90;;;;;;5100001;27;20067;-83
2021/04/07 07:56:18;;;;;;;27.92;4.13;;;5.60;99.90;;;;;;5127586;27;20131;-84
2021/04/07 07:58:50;;;;;;;26.25;3.33;;;5.70;99.90;;;;;;5099744;27;20127;-84
2021/04/07 08:01:44;;;;;;;30.90;3.47;;;5.80;99.90;;;;;;5111508;27;20505;-84
2021/04/07 08:04:11;;;;;;;41.10;5.20;;;5.90;99.90;;;;;;5109042;27;20052;-84
2021/04/07 08:06:37;;;;;;;25.90;4.13;;;5.90;99.90;;;;;;5108660;28;20058;-84
2021/04/07 08:09:06;;;;;;;28.60;4.07;;;5.90;99.90;;;;;;5109273;28;20433;-83
2021/04/07 08:11:33;;;;;;;17.98;3.50;;;5.80;99.90;;;;;;5107719;28;20051;-84
2021/04/07 08:14:01;;;;;;;23.05;4.45;;;5.70;99.90;;;;;;5100315;28;20456;-84
2021/04/07 08:16:28;;;;;;;18.27;2.60;;;5.60;99.90;;;;;;5106571;28;20058;-83
2021/04/07 08:18:55;;;;;;;20.05;3.72;;;5.50;99.90;;;;;;5108503;28;20060;-84
2021/04/07 08:21:23;;;;;;;28.23;3.17;;;5.40;99.90;;;;;;5078911;27;20075;-83
2021/04/07 08:23:54;;;;;;;30.98;4.53;;;5.50;99.90;;;;;;5081993;27;20104;-83
2021/04/07 08:26:25;;;;;;;31.67;3.25;;;5.60;99.90;;;;;;5100653;27;20131;-83
2021/04/07 08:28:51;;;;;;;18.23;3.33;;;5.80;99.90;;;;;;5103611;28;20135;-82
2021/04/07 08:31:19;;;;;;;18.17;2.55;;;6.00;99.90;;;;;;5107817;27;20072;-83
2021/04/07 08:33:50;;;;;;;15.77;2.88;;;6.20;99.90;;;;;;5106152;28;20054;-83
2021/04/07 08:36:25;;;;;;;25.13;2.17;;;6.40;99.90;;;;;;5105900;27;20096;-83
2021/04/07 08:39:06;;;;;;;25.63;3.97;;;6.50;99.90;;;;;;5120528;27;20079;-83
2021/04/07 08:41:33;;;;;;;24.92;4.85;;;6.80;99.90;;;;;;5105667;28;20048;-83
2021/04/07 08:44:02;;;;;;;21.70;3.45;;;7.10;99.90;;;;;;5109515;27;20170;-83
2021/04/07 08:46:39;;;;;;;34.85;3.33;;;7.40;99.90;;;;;;5099699;28;20044;-83
2021/04/07 08:49:05;;;;;;;24.80;4.55;;;7.60;99.90;;;;;;5104085;28;20222;-83
2021/04/07 08:51:40;;;;;;;25.25;2.97;;;7.60;99.90;;;;;;5107908;27;20051;-83
2021/04/07 08:54:06;;;;;;;19.88;3.08;;;7.50;99.90;;;;;;5107849;28;20154;-83
2021/04/07 08:56:36;;;;;;;18.67;2.95;;;7.40;99.90;;;;;;5088005;28;20058;-83
2021/04/07 08:59:04;;;;;;;19.58;2.42;;;7.20;99.90;;;;;;5099934;28;20047;-83
2021/04/07 09:01:30;;;;;;;19.48;2.33;;;7.20;99.90;;;;;;5101521;28;20043;-83
2021/04/07 09:04:18;;;;;;;12.60;1.27;;;7.30;99.90;;;;;;5062340;28;20079;-83
2021/04/07 09:07:00;;;;;;;17.83;1.95;;;7.60;99.90;;;;;;5101302;27;20071;-83
2021/04/07 09:09:33;;;;;;;15.60;1.85;;;7.80;99.90;;;;;;5107486;27;20071;-83
2021/04/07 09:12:00;;;;;;;15.73;2.55;;;7.80;99.90;;;;;;5107105;28;20544;-83
2021/04/07 09:14:28;;;;;;;15.95;2.72;;;7.70;99.90;;;;;;5108467;28;20127;-83
2021/04/07 09:17:02;;;;;;;16.20;2.08;;;7.70;99.90;;;;;;5087965;28;20138;-83
2021/04/07 09:19:31;;;;;;;13.63;2.17;;;7.80;99.90;;;;;;5093550;28;20073;-83
2021/04/07 09:22:06;;;;;;;17.73;1.98;;;7.90;99.90;;;;;;5104717;28;20055;-82
2021/04/07 09:24:43;;;;;;;24.58;4.20;;;8.10;99.90;;;;;;5104487;27;20177;-82
2021/04/07 09:27:25;;;;;;;20.33;2.47;;;8.30;99.90;;;;;;5106468;28;20528;-83
2021/04/07 09:29:52;;;;;;;16.83;3.60;;;8.50;99.90;;;;;;5106139;27;20055;-83
2021/04/07 09:32:22;;;;;;;21.20;4.07;;;8.70;99.90;;;;;;5108792;27;20048;-82
2021/04/07 09:34:48;;;;;;;16.65;2.50;;;8.80;99.90;;;;;;5093139;27;20051;-82
2021/04/07 09:37:15;;;;;;;26.13;2.75;;;8.90;99.90;;;;;;5096336;28;20058;-81
2021/04/07 09:39:42;;;;;;;23.02;3.40;;;8.90;99.90;;;;;;5107669;28;20371;-81
2021/04/07 09:42:09;;;;;;;19.45;3.58;;;8.90;99.90;;;;;;5107886;28;20104;-81
2021/04/07 09:44:35;;;;;;;21.92;4.00;;;8.90;99.90;;;;;;5101676;28;20103;-81
2021/04/07 09:47:03;;;;;;;13.05;2.08;;;8.90;99.90;;;;;;5107656;27;20085;-81
2021/04/07 09:49:32;;;;;;;21.30;3.30;;;8.80;99.90;;;;;;5107631;27;20550;-81
2021/04/07 09:51:59;;;;;;;18.23;3.60;;;8.80;99.90;;;;;;5081163;28;20132;-81
2021/04/07 09:54:31;;;;;;;16.35;2.70;;;9.00;99.90;;;;;;5106725;28;20062;-82
2021/04/07 09:57:00;;;;;;;17.83;3.58;;;9.10;99.90;;;;;;5106786;27;20040;-81
2021/04/07 09:59:39;;;;;;;14.82;1.80;;;9.30;99.90;;;;;;5102645;28;20043;-81
2021/04/07 10:02:11;;;;;;;19.77;4.13;;;9.20;99.90;;;;;;5123226;27;20052;-82
2021/04/07 10:04:44;;;;;;;22.52;3.55;;;9.00;99.90;;;;;;5104236;28;20054;-82
2021/04/07 10:07:12;;;;;;;19.57;3.03;;;8.80;99.90;;;;;;5095699;28;20075;-82
2021/04/07 10:09:53;;;;;;;22.95;2.47;;;8.80;99.90;;;;;;5119945;27;20501;-82
2021/04/07 10:12:22;;;;;;;17.48;2.40;;;8.80;99.90;;;;;;5107173;28;20056;-82
2021/04/07 10:14:56;;;;;;;10.55;2.65;;;8.80;99.90;;;;;;5094134;28;20112;-82
2021/04/07 10:17:40;;;;;;;15.70;3.03;;;9.00;99.90;;;;;;5105776;28;20051;-82
2021/04/07 10:20:15;;;;;;;12.80;2.50;;;9.20;99.90;;;;;;5090255;28;20082;-82
2021/04/07 10:22:43;;;;;;;11.23;2.60;;;9.20;99.90;;;;;;5099798;28;20063;-82
2021/04/07 10:25:18;;;;;;;29.40;2.50;;;9.00;99.90;;;;;;5099018;28;20078;-82
2021/04/07 10:27:45;;;;;;;18.13;3.08;;;8.90;99.90;;;;;;5105346;28;20051;-82
2021/04/07 10:30:15;;;;;;;26.15;3.78;;;8.80;99.90;;;;;;5097211;28;20051;-82
2021/04/07 10:32:46;;;;;;;19.50;2.63;;;8.70;99.90;;;;;;5099333;28;20559;-82
2021/04/07 10:35:26;;;;;;;23.58;2.70;;;8.70;99.90;;;;;;5106578;28;20135;-83
2021/04/07 10:38:04;;;;;;;14.82;1.98;;;8.60;99.90;;;;;;5099932;28;20111;-83
2021/04/07 10:40:33;;;;;;;24.15;3.85;;;8.60;99.90;;;;;;5102477;28;20453;-82
2021/04/07 10:43:13;;;;;;;16.02;1.88;;;8.40;99.90;;;;;;5104967;28;20031;-83
2021/04/07 10:45:42;;;;;;;14.57;2.22;;;8.40;99.90;;;;;;5102489;28;20127;-82
2021/04/07 10:48:08;;;;;;;21.02;3.15;;;8.30;99.90;;;;;;5102028;28;20051;-82
2021/04/07 10:50:40;;;;;;;14.95;2.60;;;8.20;99.90;;;;;;5103179;28;20044;-82
2021/04/07 10:53:07;;;;;;;23.63;2.50;;;8.20;99.90;;;;;;5088094;28;20043;-83
2021/04/07 10:55:36;;;;;;;13.80;2.58;;;8.30;99.90;;;;;;5101873;28;20078;-83
2021/04/07 10:58:02;;;;;;;21.05;2.92;;;8.40;99.90;;;;;;5115085;28;20043;-83
2021/04/07 11:00:44;;;;;;;15.13;3.53;;;8.60;99.90;;;;;;5100507;28;20058;-83
2021/04/07 11:03:10;;;;;;;16.75;3.05;;;8.90;99.90;;;;;;5105068;28;20441;-82
2021/04/07 11:05:42;;;;;;;13.80;3.58;;;9.20;99.90;;;;;;5105433;28;20051;-83
2021/04/07 11:08:10;;;;;;;18.60;2.83;;;9.40;99.90;;;;;;5107655;28;20063;-83
2021/04/07 11:10:36;;;;;;;22.25;2.47;;;9.60;99.90;;;;;;5100121;28;20048;-83
2021/04/07 11:13:04;;;;;;;20.30;3.38;;;9.80;99.90;;;;;;5110114;28;20055;-83
2021/04/07 11:15:31;;;;;;;11.30;2.30;;;9.90;99.90;;;;;;5085075;28;20104;-83
2021/04/07 11:17:57;;;;;;;15.82;2.47;;;10.00;99.90;;;;;;5106154;28;20135;-85
2021/04/07 11:20:25;;;;;;;16.13;2.35;;;10.20;99.90;;;;;;5109038;27;20054;-82
2021/04/07 11:22:55;;;;;;;7.85;1.70;;;10.30;99.90;;;;;;5093738;27;20071;-81
2021/04/07 11:25:22;;;;;;;16.98;3.10;;;10.40;99.90;;;;;;5103566;28;20096;-82
2021/04/07 11:27:51;;;;;;;22.77;2.78;;;10.50;99.90;;;;;;5106965;28;20043;-81
2021/04/07 11:30:21;;;;;;;17.45;2.47;;;10.50;99.90;;;;;;5110037;28;20130;-84
2021/04/07 11:32:54;;;;;;;17.08;3.13;;;10.50;99.90;;;;;;5098659;28;20074;-83
2021/04/07 11:35:46;;;;;;;12.93;1.90;;;10.40;99.90;;;;;;5089255;28;20048;-84
2021/04/07 11:38:14;;;;;;;16.38;3.55;;;10.40;99.90;;;;;;5088480;27;20055;-82
2021/04/07 11:45:48;;;;;;;13.75;2.80;;;9.70;99.90;;;;;;5101187;27;20047;-85
2021/04/07 11:48:35;;;;;;;18.00;3.90;;;9.50;99.90;;;;;;5052232;27;20055;-84
2021/04/07 11:51:02;;;;;;;21.13;2.63;;;9.30;99.90;;;;;;5081538;27;20052;-82
2021/04/07 11:53:30;;;;;;;10.73;2.30;;;9.20;99.90;;;;;;5081380;28;20044;-82
2021/04/07 11:55:56;;;;;;;21.02;2.65;;;9.10;99.90;;;;;;5095508;27;20135;-82
2021/04/07 11:58:22;;;;;;;17.58;1.80;;;9.20;99.90;;;;;;5110596;28;20067;-82
2021/04/07 12:00:48;;;;;;;20.05;2.65;;;9.20;99.90;;;;;;5108957;28;20126;-82
2021/04/07 12:03:15;;;;;;;19.35;2.65;;;9.30;99.90;;;;;;5108685;27;20058;-83
2021/04/07 12:05:41;;;;;;;12.80;2.38;;;9.50;99.80;;;;;;5106528;28;20075;-85
2021/04/07 12:08:07;;;;;;;15.85;2.97;;;9.60;99.10;;;;;;5111316;27;20055;-85
2021/04/07 12:10:34;;;;;;;14.00;2.20;;;9.90;99.40;;;;;;5077658;28;20073;-85
2021/04/07 12:13:00;;;;;;;17.23;2.45;;;10.10;98.70;;;;;;5093450;28;20048;-83
2021/04/07 12:15:27;;;;;;;10.20;1.55;;;10.20;98.90;;;;;;5109148;28;20051;-82
2021/04/07 12:17:56;;;;;;;7.90;1.70;;;10.50;96.00;;;;;;5107443;28;20069;-83
2021/04/07 12:20:23;;;;;;;10.80;1.40;;;10.60;91.60;;;;;;5106459;28;21732;-83
2021/04/07 12:22:52;;;;;;;11.07;2.50;;;10.60;89.60;;;;;;5107155;27;20059;-84
2021/04/07 12:25:21;;;;;;;10.70;1.98;;;10.50;86.20;;;;;;5071512;28;20074;-83
2021/04/07 12:27:47;;;;;;;10.18;2.50;;;10.30;90.20;;;;;;5104669;28;20048;-84
2021/04/07 12:30:14;;;;;;;12.07;2.08;;;10.10;90.90;;;;;;5109127;27;20101;-84
2021/04/07 12:32:40;;;;;;;15.77;2.40;;;10.00;89.60;;;;;;5103545;28;22250;-83
2021/04/07 12:35:10;;;;;;;9.27;1.10;;;10.00;90.00;;;;;;5108611;27;20501;-84
2021/04/07 12:37:39;;;;;;;16.15;2.08;;;10.00;88.10;;;;;;5109390;28;20554;-84
2021/04/07 12:40:07;;;;;;;11.30;1.50;;;10.00;88.90;;;;;;5107033;28;20470;-84
2021/04/07 12:42:33;;;;;;;11.02;2.08;;;10.10;89.80;;;;;;5106216;28;20147;-84
2021/04/07 12:45:01;;;;;;;11.57;2.28;;;10.20;89.10;;;;;;5075617;28;20052;-84
2021/04/07 12:47:28;;;;;;;5.43;1.40;;;10.40;87.80;;;;;;5096991;27;20549;-84
2021/04/07 12:49:54;;;;;;;11.90;1.50;;;10.60;86.50;;;;;;5084685;28;20051;-85
2021/04/07 12:52:23;;;;;;;9.38;2.40;;;10.80;83.90;;;;;;5097071;28;20550;-84
2021/04/07 12:54:58;;;;;;;5.97;1.33;;;10.90;82.60;;;;;;5082876;27;20130;-85
2021/04/07 12:57:35;;;;;;;9.15;1.10;;;11.10;81.10;;;;;;5076320;27;20063;-86
2021/04/07 13:00:02;;;;;;;14.30;1.77;;;11.70;79.70;;;;;;5092104;28;20058;-86
2021/04/07 13:02:29;;;;;;;10.68;1.40;;;12.70;73.00;;;;;;5110984;28;20460;-86